createdAt,value
2022-11-05T00:00:17.932Z,57.60
2022-11-05T00:03:03.428Z,57.44
2022-11-05T00:05:49.932Z,57.70
2022-11-05T00:08:35.528Z,57.95
2022-11-05T00:11:02.623Z,57.69
2022-11-05T00:13:49.662Z,57.65
2022-11-05T00:16:35.288Z,57.48
2022-11-05T00:19:08.829Z,57.62
2022-11-05T00:21:57.196Z,57.29
2022-11-05T00:24:43.740Z,57.60
2022-11-05T00:27:11.478Z,57.49
2022-11-05T00:29:39.817Z,57.43
2022-11-05T00:32:06.791Z,57.74
2022-11-05T00:34:33.760Z,57.79
2022-11-05T00:37:00.676Z,57.96
2022-11-05T00:39:27.634Z,57.87
2022-11-05T00:42:17.859Z,57.63
2022-11-05T00:45:01.153Z,57.52
2022-11-05T00:47:47.678Z,57.48
2022-11-05T00:50:14.937Z,57.36
2022-11-05T00:52:57.628Z,57.42
2022-11-05T00:55:28.937Z,57.61
2022-11-05T00:57:57.626Z,57.22
2022-11-05T01:00:29.086Z,57.25
2022-11-05T01:02:59.721Z,56.94
2022-11-05T01:05:27.769Z,57.23
2022-11-05T01:07:55.404Z,57.13
2022-11-05T01:10:23.170Z,57.07
2022-11-05T01:12:50.658Z,57.34
2022-11-05T01:15:19.315Z,57.44
2022-11-05T01:17:47.825Z,57.27
2022-11-05T01:20:15.083Z,57.41
2022-11-05T01:22:42.068Z,57.38
2022-11-05T01:25:10.103Z,57.49
2022-11-05T01:27:37.949Z,57.42
2022-11-05T01:30:08.561Z,57.42
2022-11-05T01:32:37.045Z,57.41
2022-11-05T01:35:08.027Z,57.43
2022-11-05T01:37:35.735Z,57.56
2022-11-05T01:40:03.617Z,57.42
2022-11-05T01:42:32.874Z,57.55
2022-11-05T01:45:10.630Z,57.70
2022-11-05T01:47:56.204Z,57.58
2022-11-05T01:50:43.889Z,57.56
2022-11-05T01:53:23.325Z,57.73
2022-11-05T01:55:58.872Z,57.53
2022-11-05T01:58:36.631Z,57.53
2022-11-05T02:01:03.681Z,57.60
2022-11-05T02:03:31.420Z,57.22
2022-11-05T02:06:02.827Z,57.50
2022-11-05T02:08:52.509Z,57.43
2022-11-05T02:11:20.308Z,57.42
2022-11-05T02:13:48.742Z,57.34
2022-11-05T02:16:31.300Z,57.48
2022-11-05T02:19:13.794Z,57.27
2022-11-05T02:22:19.159Z,57.36
2022-11-05T02:25:34.690Z,57.26
2022-11-05T02:28:32.223Z,57.65
2022-11-05T02:31:09.378Z,57.50
2022-11-05T02:33:56.404Z,57.84
2022-11-05T02:36:36.811Z,57.48
2022-11-05T02:39:27.006Z,57.22
2022-11-05T02:42:05.431Z,57.06
2022-11-05T02:44:47.595Z,56.86
2022-11-05T02:47:29.262Z,56.83
2022-11-05T02:50:12.971Z,56.73
2022-11-05T02:52:50.498Z,57.02
2022-11-05T02:55:27.017Z,56.95
2022-11-05T02:57:54.113Z,57.17
2022-11-05T03:00:53.032Z,57.85
2022-11-05T03:03:35.505Z,57.74
2022-11-05T03:06:36.606Z,57.64
2022-11-05T03:09:32.118Z,57.46
2022-11-05T03:12:14.820Z,56.84
2022-11-05T03:14:56.638Z,56.92
2022-11-05T03:17:36.311Z,56.51
2022-11-05T03:20:19.206Z,56.46
2022-11-05T03:22:58.263Z,56.36
2022-11-05T03:25:29.163Z,56.33
2022-11-05T03:28:06.010Z,56.40
2022-11-05T03:30:36.669Z,56.36
2022-11-05T03:33:11.885Z,56.42
2022-11-05T03:35:47.103Z,56.40
2022-11-05T03:38:22.370Z,56.65
2022-11-05T03:40:57.314Z,56.71
2022-11-05T03:43:30.035Z,56.77
2022-11-05T03:46:02.355Z,56.83
2022-11-05T03:48:33.584Z,57.08
2022-11-05T03:51:11.410Z,57.04
2022-11-05T03:53:46.224Z,57.16
2022-11-05T03:56:23.759Z,57.57
2022-11-05T03:58:57.592Z,57.87
2022-11-05T04:01:27.086Z,57.66
2022-11-05T04:03:54.179Z,57.54
2022-11-05T04:06:40.921Z,57.34
2022-11-05T04:09:27.564Z,57.09
2022-11-05T04:12:13.115Z,57.29
2022-11-05T04:14:40.158Z,57.13
2022-11-05T04:17:07.164Z,57.07
2022-11-05T04:19:53.024Z,57.00
2022-11-05T04:22:40.040Z,57.04
2022-11-05T04:25:07.967Z,57.30
2022-11-05T04:27:35.028Z,56.84
2022-11-05T04:30:18.473Z,56.12
2022-11-05T04:33:01.163Z,56.22
2022-11-05T04:35:30.401Z,56.63
2022-11-05T04:37:58.891Z,56.73
2022-11-05T04:40:26.210Z,56.73
2022-11-05T04:42:55.187Z,57.00
2022-11-05T04:45:23.326Z,57.46
2022-11-05T04:47:50.411Z,57.19
2022-11-05T04:50:17.913Z,57.39
2022-11-05T04:52:44.913Z,57.60
2022-11-05T04:55:13.754Z,57.86
2022-11-05T04:57:41.028Z,57.48
2022-11-05T05:00:10.801Z,58.23
2022-11-05T05:02:39.426Z,58.18
2022-11-05T05:05:06.561Z,58.06
2022-11-05T05:07:34.265Z,58.07
2022-11-05T05:10:01.488Z,58.26
2022-11-05T05:12:29.900Z,58.15
2022-11-05T05:14:57.264Z,58.62
2022-11-05T05:17:25.130Z,58.17
2022-11-05T05:20:10.836Z,58.80
2022-11-05T05:22:37.859Z,59.40
2022-11-05T05:25:05.375Z,59.09
2022-11-05T05:27:33.699Z,58.50
2022-11-05T05:30:00.772Z,58.28
2022-11-05T05:32:27.798Z,58.29
2022-11-05T05:34:54.748Z,57.88
2022-11-05T05:37:21.750Z,57.53
2022-11-05T05:39:49.678Z,57.75
2022-11-05T05:42:16.733Z,57.56
2022-11-05T05:44:45.156Z,57.62
2022-11-05T05:47:13.404Z,57.09
2022-11-05T05:49:40.359Z,56.83
2022-11-05T05:52:07.630Z,56.97
2022-11-05T05:54:39.742Z,56.81
2022-11-05T05:57:09.792Z,56.82
2022-11-05T05:59:36.806Z,56.85
2022-11-05T06:02:05.109Z,56.64
2022-11-05T06:04:32.172Z,56.60
2022-11-05T06:06:59.236Z,56.11
2022-11-05T06:09:26.183Z,56.31
2022-11-05T06:11:53.109Z,56.62
2022-11-05T06:14:20.054Z,56.34
2022-11-05T06:16:47.096Z,56.17
2022-11-05T06:19:15.589Z,56.74
2022-11-05T06:21:42.654Z,56.59
2022-11-05T06:24:10.232Z,56.85
2022-11-05T06:26:42.584Z,56.99
2022-11-05T06:29:10.428Z,56.76
2022-11-05T06:31:37.400Z,56.56
2022-11-05T06:34:04.402Z,56.55
2022-11-05T06:36:33.409Z,56.86
2022-11-05T06:39:00.398Z,57.11
2022-11-05T06:41:27.379Z,57.04
2022-11-05T06:43:54.418Z,57.15
2022-11-05T06:46:22.624Z,57.08
2022-11-05T06:48:50.903Z,56.91
2022-11-05T06:51:18.516Z,56.93
2022-11-05T06:53:46.925Z,56.77
2022-11-05T06:56:13.940Z,56.70
2022-11-05T06:58:40.871Z,57.17
2022-11-05T07:01:10.445Z,56.60
2022-11-05T07:03:38.809Z,56.76
2022-11-05T07:06:07.450Z,56.54
2022-11-05T07:08:36.329Z,56.96
2022-11-05T07:11:05.227Z,56.74
2022-11-05T07:13:32.361Z,56.57
2022-11-05T07:15:59.429Z,56.52
2022-11-05T07:18:26.420Z,56.68
2022-11-05T07:20:53.360Z,56.04
2022-11-05T07:23:20.429Z,56.24
2022-11-05T07:25:47.492Z,56.10
2022-11-05T07:28:15.786Z,56.28
2022-11-05T07:30:42.818Z,56.19
2022-11-05T07:33:10.299Z,56.27
2022-11-05T07:35:37.465Z,56.71
2022-11-05T07:38:04.522Z,56.67
2022-11-05T07:40:31.825Z,56.56
2022-11-05T07:43:01.269Z,56.39
2022-11-05T07:45:31.502Z,56.23
2022-11-05T07:48:00.551Z,56.15
2022-11-05T07:50:30.906Z,56.39
2022-11-05T07:53:02.111Z,56.26
2022-11-05T07:55:30.231Z,56.37
2022-11-05T07:57:57.671Z,56.73
2022-11-05T08:00:26.926Z,56.75
2022-11-05T08:03:07.227Z,56.63
2022-11-05T08:05:37.111Z,56.04
2022-11-05T08:08:06.021Z,56.18
2022-11-05T08:10:34.148Z,55.75
2022-11-05T08:13:02.033Z,55.75
2022-11-05T08:15:29.185Z,55.88
2022-11-05T08:18:01.192Z,55.98
2022-11-05T08:20:28.817Z,55.96
2022-11-05T08:22:56.093Z,56.02
2022-11-05T08:25:23.707Z,56.18
2022-11-05T08:27:56.548Z,56.26
2022-11-05T08:30:23.547Z,56.17
2022-11-05T08:32:50.879Z,56.12
2022-11-05T08:35:20.233Z,55.88
2022-11-05T08:37:47.272Z,55.83
2022-11-05T08:40:14.407Z,55.49
2022-11-05T08:42:41.420Z,55.30
2022-11-05T08:45:09.867Z,54.56
2022-11-05T08:47:36.811Z,54.01
2022-11-05T08:50:04.125Z,53.31
2022-11-05T08:52:32.468Z,51.73
2022-11-05T08:54:59.472Z,51.08
2022-11-05T08:57:27.208Z,48.94
2022-11-05T08:59:54.141Z,48.58
2022-11-05T09:02:21.198Z,47.22
2022-11-05T09:04:48.253Z,46.56
2022-11-05T09:07:15.332Z,46.03
2022-11-05T09:09:43.601Z,46.04
2022-11-05T09:12:12.706Z,45.69
2022-11-05T09:14:40.160Z,45.44
2022-11-05T09:17:16.836Z,44.47
2022-11-05T09:19:44.167Z,43.19
2022-11-05T09:22:12.813Z,43.03
2022-11-05T09:24:40.157Z,43.01
2022-11-05T09:27:18.667Z,43.33
2022-11-05T09:29:45.708Z,43.27
2022-11-05T09:32:12.758Z,43.03
2022-11-05T09:34:39.739Z,43.53
2022-11-05T09:37:06.670Z,43.78
2022-11-05T09:39:33.674Z,43.88
2022-11-05T09:42:08.402Z,44.06
2022-11-05T09:44:43.677Z,44.48
2022-11-05T09:47:20.234Z,44.45
2022-11-05T09:49:51.724Z,44.74
2022-11-05T09:52:25.730Z,45.02
2022-11-05T09:54:54.271Z,45.37
2022-11-05T09:57:29.681Z,45.29
2022-11-05T10:00:01.298Z,45.42
2022-11-05T10:02:33.115Z,45.65
2022-11-05T10:05:09.774Z,44.97
2022-11-05T10:07:45.065Z,44.63
2022-11-05T10:10:36.436Z,43.70
2022-11-05T10:13:21.127Z,42.04
2022-11-05T10:15:59.835Z,42.99
2022-11-05T10:18:33.031Z,42.99
2022-11-05T10:21:01.025Z,42.75
2022-11-05T10:23:28.861Z,42.93
2022-11-05T10:26:01.469Z,43.42
2022-11-05T10:28:33.553Z,43.61
2022-11-05T10:31:06.099Z,43.84
2022-11-05T10:33:39.745Z,43.77
2022-11-05T10:36:12.515Z,44.48
2022-11-05T10:38:39.505Z,44.58
2022-11-05T10:41:31.023Z,44.74
2022-11-05T10:44:19.012Z,44.67
2022-11-05T10:46:56.278Z,44.63
2022-11-05T10:49:43.098Z,43.41
2022-11-05T10:52:24.362Z,42.89
2022-11-05T10:54:56.693Z,41.62
2022-11-05T10:57:34.274Z,42.45
2022-11-05T11:00:28.133Z,42.98
2022-11-05T11:02:59.020Z,43.56
2022-11-05T11:05:30.399Z,43.87
2022-11-05T11:08:03.952Z,43.60
2022-11-05T11:10:40.168Z,44.19
2022-11-05T11:13:20.527Z,43.92
2022-11-05T11:15:50.917Z,44.35
2022-11-05T11:18:33.482Z,44.65
2022-11-05T11:21:12.383Z,44.75
2022-11-05T11:23:42.363Z,45.17
2022-11-05T11:26:11.487Z,45.19
2022-11-05T11:28:45.857Z,45.45
2022-11-05T11:31:19.636Z,45.92
2022-11-05T11:33:51.271Z,45.19
2022-11-05T11:36:26.090Z,45.66
2022-11-05T11:39:00.986Z,46.04
2022-11-05T11:41:34.192Z,45.88
2022-11-05T11:44:08.060Z,45.92
2022-11-05T11:46:36.719Z,45.88
2022-11-05T11:49:06.110Z,45.82
2022-11-05T11:51:40.514Z,45.85
2022-11-05T11:54:28.611Z,45.96
2022-11-05T11:56:56.208Z,45.92
2022-11-05T11:59:46.902Z,46.17
2022-11-05T12:02:44.603Z,46.22
2022-11-05T12:05:25.965Z,46.05
2022-11-05T12:07:57.951Z,45.74
2022-11-05T12:10:48.712Z,45.16
2022-11-05T12:13:56.506Z,45.38
2022-11-05T12:16:53.961Z,44.88
2022-11-05T12:19:54.415Z,45.27
2022-11-05T12:22:36.457Z,44.76
2022-11-05T12:25:23.168Z,44.90
2022-11-05T12:28:17.426Z,45.17
2022-11-05T12:30:55.538Z,45.42
2022-11-05T12:33:42.180Z,45.30
2022-11-05T12:36:30.410Z,45.64
2022-11-05T12:39:19.610Z,45.70
2022-11-05T12:42:01.268Z,45.53
2022-11-05T12:44:55.047Z,45.31
2022-11-05T12:47:49.264Z,45.76
2022-11-05T12:50:28.359Z,45.49
2022-11-05T12:53:33.781Z,45.69
2022-11-05T12:56:13.936Z,46.10
2022-11-05T12:58:47.190Z,45.88
2022-11-05T13:01:21.924Z,46.02
2022-11-05T13:03:58.551Z,45.64
2022-11-05T13:06:34.929Z,45.58
2022-11-05T13:09:13.415Z,45.49
2022-11-05T13:11:49.189Z,45.40
2022-11-05T13:14:21.905Z,45.59
2022-11-05T13:16:53.780Z,45.50
2022-11-05T13:19:27.138Z,45.39
2022-11-05T13:22:00.344Z,45.23
2022-11-05T13:24:37.617Z,45.29
2022-11-05T13:27:39.006Z,45.24
2022-11-05T13:30:14.795Z,45.44
2022-11-05T13:32:48.162Z,45.34
2022-11-05T13:35:22.274Z,45.35
2022-11-05T13:38:15.595Z,45.54
2022-11-05T13:41:01.066Z,45.76
2022-11-05T13:43:46.582Z,45.96
2022-11-05T13:46:44.039Z,46.14
2022-11-05T13:49:49.076Z,46.08
2022-11-05T13:52:46.098Z,45.86
2022-11-05T13:55:42.493Z,46.17
2022-11-05T13:58:37.312Z,46.14
2022-11-05T14:01:19.898Z,46.24
2022-11-05T14:03:50.733Z,46.53
2022-11-05T14:06:27.558Z,46.51
2022-11-05T14:09:00.684Z,46.77
2022-11-05T14:11:32.525Z,46.93
2022-11-05T14:14:05.303Z,46.84
2022-11-05T14:16:50.566Z,46.98
2022-11-05T14:19:35.824Z,46.39
2022-11-05T14:22:40.280Z,46.93
2022-11-05T14:26:12.426Z,46.69
2022-11-05T14:28:47.241Z,46.87
2022-11-05T14:31:54.580Z,47.05
2022-11-05T14:34:37.341Z,47.36
2022-11-05T14:37:30.084Z,47.50
2022-11-05T14:40:29.029Z,47.58
2022-11-05T14:43:01.560Z,47.52
2022-11-05T14:45:32.438Z,47.51
2022-11-05T14:48:03.789Z,47.64
2022-11-05T14:50:38.336Z,47.78
2022-11-05T14:53:22.498Z,47.74
2022-11-05T14:56:00.919Z,48.01
2022-11-05T14:58:35.472Z,47.99
2022-11-05T15:01:06.010Z,48.12
2022-11-05T15:04:15.467Z,48.50
2022-11-05T15:07:31.789Z,48.48
2022-11-05T15:10:10.277Z,48.61
2022-11-05T15:12:44.572Z,48.85
2022-11-05T15:15:22.399Z,48.90
2022-11-05T15:18:03.599Z,48.90
2022-11-05T15:20:40.193Z,49.34
2022-11-05T15:23:16.132Z,49.33
2022-11-05T15:25:53.404Z,49.62
2022-11-05T15:28:33.853Z,49.76
2022-11-05T15:31:03.304Z,49.80
2022-11-05T15:33:32.265Z,49.68
2022-11-05T15:36:11.280Z,50.06
2022-11-05T15:38:56.618Z,50.22
2022-11-05T15:41:34.273Z,50.21
2022-11-05T15:44:02.668Z,50.48
2022-11-05T15:46:30.061Z,50.44
2022-11-05T15:49:03.541Z,50.51
2022-11-05T15:51:30.669Z,50.62
2022-11-05T15:54:29.019Z,51.18
2022-11-05T15:56:52.433Z,50.65
2022-11-05T15:59:21.539Z,50.64
2022-11-05T16:01:52.465Z,50.34
2022-11-05T16:04:22.708Z,50.53
2022-11-05T16:06:53.712Z,50.83
2022-11-05T16:09:28.441Z,50.59
2022-11-05T16:12:24.770Z,50.76
2022-11-05T16:15:18.224Z,51.28
2022-11-05T16:17:50.692Z,51.29
2022-11-05T16:20:25.791Z,51.24
2022-11-05T16:22:56.092Z,51.46
2022-11-05T16:25:39.731Z,51.71
2022-11-05T16:28:22.188Z,51.25
2022-11-05T16:30:55.623Z,50.90
2022-11-05T16:33:24.785Z,50.75
2022-11-05T16:35:51.984Z,50.94
2022-11-05T16:38:20.345Z,51.01
2022-11-05T16:40:48.664Z,50.76
2022-11-05T16:43:20.780Z,50.90
2022-11-05T16:45:48.189Z,51.13
2022-11-05T16:48:16.419Z,50.99
2022-11-05T16:50:44.672Z,51.06
2022-11-05T16:53:13.146Z,50.96
2022-11-05T16:55:44.751Z,51.22
2022-11-05T16:58:20.927Z,51.09
2022-11-05T17:00:50.739Z,50.95
2022-11-05T17:03:18.471Z,51.17
2022-11-05T17:05:46.099Z,51.43
2022-11-05T17:08:13.531Z,51.42
2022-11-05T17:10:40.705Z,51.69
2022-11-05T17:13:08.639Z,51.74
2022-11-05T17:15:37.003Z,51.47
2022-11-05T17:18:05.488Z,51.74
2022-11-05T17:20:41.443Z,51.66
2022-11-05T17:23:11.851Z,51.77
2022-11-05T17:25:40.750Z,51.94
2022-11-05T17:28:08.936Z,51.82
2022-11-05T17:30:40.368Z,52.03
2022-11-05T17:33:09.412Z,51.63
2022-11-05T17:35:38.517Z,51.90
2022-11-05T17:38:05.598Z,51.70
2022-11-05T17:40:35.503Z,51.72
2022-11-05T17:43:03.788Z,51.68
2022-11-05T17:45:30.956Z,51.88
2022-11-05T17:47:59.665Z,51.51
2022-11-05T17:50:26.647Z,51.88
2022-11-05T17:52:53.785Z,52.21
2022-11-05T17:55:20.837Z,51.55
2022-11-05T17:57:50.672Z,51.82
2022-11-05T18:00:21.153Z,51.74
2022-11-05T18:02:49.551Z,51.72
2022-11-05T18:05:19.640Z,51.64
2022-11-05T18:07:46.853Z,51.69
2022-11-05T18:10:15.170Z,51.74
2022-11-05T18:12:43.545Z,51.71
2022-11-05T18:15:11.511Z,51.67
2022-11-05T18:17:38.732Z,52.15
2022-11-05T18:20:14.214Z,52.09
2022-11-05T18:22:48.575Z,51.98
2022-11-05T18:25:16.326Z,52.13
2022-11-05T18:27:44.057Z,51.76
2022-11-05T18:30:15.213Z,51.62
2022-11-05T18:32:42.316Z,51.21
2022-11-05T18:35:10.076Z,51.03
2022-11-05T18:37:38.759Z,51.06
2022-11-05T18:40:09.442Z,50.97
2022-11-05T18:42:36.678Z,50.51
2022-11-05T18:45:04.859Z,50.85
2022-11-05T18:47:33.417Z,50.81
2022-11-05T18:50:00.624Z,50.60
2022-11-05T18:52:28.306Z,50.26
2022-11-05T18:54:55.226Z,50.07
2022-11-05T18:57:23.640Z,50.29
2022-11-05T18:59:50.577Z,50.42
2022-11-05T19:02:18.307Z,50.01
2022-11-05T19:05:06.673Z,50.27
2022-11-05T19:07:36.068Z,50.10
2022-11-05T19:10:03.441Z,50.24
2022-11-05T19:12:31.908Z,50.31
2022-11-05T19:15:02.319Z,50.09
2022-11-05T19:17:32.107Z,50.50
2022-11-05T19:19:59.294Z,50.32
2022-11-05T19:22:26.366Z,50.66
2022-11-05T19:24:53.411Z,50.73
2022-11-05T19:27:20.704Z,51.25
2022-11-05T19:29:49.192Z,50.95
2022-11-05T19:32:16.163Z,50.67
2022-11-05T19:34:43.482Z,50.93
2022-11-05T19:37:10.674Z,51.32
2022-11-05T19:39:38.591Z,51.52
2022-11-05T19:42:06.731Z,51.31
2022-11-05T19:44:33.771Z,51.59
2022-11-05T19:47:02.052Z,52.02
2022-11-05T19:49:29.184Z,51.45
2022-11-05T19:51:56.355Z,51.53
2022-11-05T19:54:23.421Z,51.73
2022-11-05T19:56:51.795Z,52.03
2022-11-05T19:59:18.998Z,52.28
2022-11-05T20:01:46.127Z,52.26
2022-11-05T20:04:14.641Z,52.15
2022-11-05T20:06:41.738Z,52.26
2022-11-05T20:09:27.104Z,52.19
2022-11-05T20:11:56.406Z,52.29
2022-11-05T20:14:25.885Z,52.32
2022-11-05T20:16:53.724Z,52.46
2022-11-05T20:19:23.178Z,52.67
2022-11-05T20:21:50.284Z,53.10
2022-11-05T20:24:24.766Z,53.09
2022-11-05T20:26:53.375Z,53.09
2022-11-05T20:29:20.915Z,53.22
2022-11-05T20:31:49.270Z,53.08
2022-11-05T20:34:16.291Z,53.17
2022-11-05T20:36:44.665Z,53.15
2022-11-05T20:39:12.046Z,53.04
2022-11-05T20:41:39.185Z,53.48
2022-11-05T20:44:06.272Z,53.15
2022-11-05T20:46:33.500Z,53.17
2022-11-05T20:49:00.621Z,53.02
2022-11-05T20:51:27.734Z,52.81
2022-11-05T20:53:58.719Z,52.99
2022-11-05T20:56:29.360Z,52.76
2022-11-05T20:58:58.622Z,52.79
2022-11-05T21:01:27.434Z,53.20
2022-11-05T21:03:55.175Z,53.21
2022-11-05T21:06:23.189Z,53.11
2022-11-05T21:08:52.414Z,52.99
2022-11-05T21:11:21.242Z,53.44
2022-11-05T21:13:49.163Z,53.01
2022-11-05T21:16:18.973Z,53.35
2022-11-05T21:18:47.699Z,53.16
2022-11-05T21:21:19.712Z,53.38
2022-11-05T21:23:47.213Z,53.32
2022-11-05T21:26:16.615Z,53.58
2022-11-05T21:28:45.107Z,53.56
2022-11-05T21:31:13.678Z,53.37
2022-11-05T21:33:40.647Z,53.72
2022-11-05T21:36:10.587Z,53.66
2022-11-05T21:38:38.145Z,53.57
2022-11-05T21:41:06.260Z,53.94
2022-11-05T21:43:33.717Z,53.64
2022-11-05T21:46:03.940Z,53.76
2022-11-05T21:48:32.115Z,53.80
2022-11-05T21:51:17.981Z,53.89
2022-11-05T21:54:03.789Z,54.26
2022-11-05T21:56:50.043Z,54.51
2022-11-05T21:59:39.077Z,54.05
2022-11-05T22:02:11.155Z,54.36
2022-11-05T22:04:41.790Z,54.01
2022-11-05T22:07:10.957Z,54.20
2022-11-05T22:09:37.988Z,53.98
2022-11-05T22:12:05.870Z,54.24
2022-11-05T22:14:32.885Z,54.15
2022-11-05T22:16:59.990Z,54.31
2022-11-05T22:19:28.881Z,54.23
2022-11-05T22:21:55.907Z,54.20
2022-11-05T22:24:24.029Z,54.34
2022-11-05T22:26:51.959Z,54.44
2022-11-05T22:29:19.528Z,54.02
2022-11-05T22:31:46.506Z,54.00
2022-11-05T22:34:13.594Z,54.06
2022-11-05T22:36:41.962Z,54.20
2022-11-05T22:39:11.693Z,54.18
2022-11-05T22:41:38.717Z,54.29
2022-11-05T22:44:05.906Z,54.29
2022-11-05T22:46:32.868Z,54.18
2022-11-05T22:49:00.191Z,54.01
2022-11-05T22:51:31.637Z,53.86
2022-11-05T22:54:00.756Z,53.79
2022-11-05T22:56:31.837Z,53.93
2022-11-05T22:58:59.715Z,53.74
2022-11-05T23:01:27.648Z,53.76
2022-11-05T23:03:57.238Z,53.90
2022-11-05T23:06:45.858Z,53.56
2022-11-05T23:09:37.703Z,53.41
2022-11-05T23:12:08.107Z,53.50
2022-11-05T23:14:36.319Z,54.14
2022-11-05T23:17:22.367Z,54.04
2022-11-05T23:20:07.940Z,54.10
2022-11-05T23:22:53.496Z,54.12
2022-11-05T23:25:23.513Z,54.14
2022-11-05T23:27:54.336Z,54.06
2022-11-05T23:30:24.743Z,53.95
2022-11-05T23:32:52.721Z,54.13
2022-11-05T23:35:42.713Z,53.82
2022-11-05T23:38:28.502Z,53.61
2022-11-05T23:41:19.167Z,53.74
2022-11-05T23:44:04.764Z,54.11
2022-11-05T23:46:50.272Z,54.19
2022-11-05T23:49:17.385Z,53.80
2022-11-05T23:51:44.541Z,54.02
2022-11-05T23:54:11.558Z,53.87
2022-11-05T23:56:39.917Z,53.60
2022-11-05T23:59:06.968Z,53.47
